Pearl, Illinois
Current Conditions -  °F | °C
As of 12:15 PM on Thursday 23 Oct 2014 (Local Time) from KPPQ Reporting Station
Scattered Clouds Scattered Clouds  
Wind Chill: 61°   Ceiling: Unl
Heat Index: 61°   Visibility: 10mi
Dew Point: 44°   Wind: 14mph
Humidity: 54%   Direction: 170°S
Pressure: 30.16"   Gusts: 18mph
Location:  39.46°N, 90.63°W
Report Text: KPPQ 231715Z AUTO 17012G16KT 10SM SCT050 16/07 A3016 RMK AO2 T01620069
Loading
Personal Weather Stations






























Interactive Weather Map
Tropical Storm Tracking
New forecast layout! Learn more

10-Day Weather Forecast

Advertisements
Track Severe Weather on mobile